Oriental Freesia — ZGCD7 — position and weather

sailwx.info

Track history (hours):
 
Tides and Currents Weather Stations Pressure Air Temp Water Temp Dewpoint Dewpoint Depression Visibility Wind Speed Wind Dir Waves Ship Positions

Oriental Freesia

Last reported at 2016-Feb-05 18:32 UTC. Time now 2016-Feb-06 03:01 UTC.
Position N 39°58' E 001°15'.

Length 134 m; draft 8.2 m.

Type: Ship (hazmat cat A). MMSI: 319349000.

Date/timePositionNaut miles runAvg speedWind from/ knotsBaromVisibWave heightAir tempDewpointWater temp
2016-Feb-05 18:32N 39°58' E 001°15'1212.5
2016-Feb-05 17:34N 40°08' E 001°23'1312.6
2016-Feb-05 16:33N 40°19' E 001°31'1312.9
2016-Feb-05 15:33N 40°31' E 001°38'1312.8
2016-Feb-05 14:34N 40°42' E 001°46'1312.4
2016-Feb-05 13:30N 40°54' E 001°54'1212.6
2016-Feb-05 12:33N 41°04' E 002°01'1212.5
2016-Feb-05 11:34N 41°15' E 002°09'14 0.5
2016-Feb-04 09:19N 41°06' E 002°23'912.2
2016-Feb-04 08:33N 40°59' E 002°32'1211.9
2016-Feb-04 07:33N 40°53' E 002°46'1211.8
2016-Feb-04 06:33N 40°49' E 003°00'1110.7
2016-Feb-04 05:33N 40°44' E 003°13'9 9.4
2016-Feb-04 04:33N 40°39' E 003°23'10 8.9
2016-Feb-04 03:26N 40°34' E 003°35'26010.0
2016-Feb-03 01:33N 38°34' E 008°34'27111.8
2016-Feb-02 02:33N 36°40' E 013°44'1212.0
2016-Feb-02 01:33N 36°36' E 013°59'1212.3
2016-Feb-02 00:33N 36°33' E 014°13'1212.4
2016-Feb-01 23:33N 36°29' E 014°28'  
Track history (hours):
 
Tides and Currents Weather Stations Pressure Air Temp Water Temp Dewpoint Dewpoint Depression Visibility Wind Speed Wind Dir Waves Ship Positions

Oriental Freesia

Last reported at 2016-Feb-05 18:32 UTC. Time now 2016-Feb-06 03:01 UTC.
Position N 39°58' E 001°15'.

Length 134 m; draft 8.2 m.

Type: Ship (hazmat cat A). MMSI: 319349000.

Date/timePositionNaut miles runAvg speedWind from/ knotsBaromVisibWave heightAir tempDewpointWater temp
2016-Feb-05 18:32N 39°58' E 001°15'1212.5
2016-Feb-05 17:34N 40°08' E 001°23'1312.6
2016-Feb-05 16:33N 40°19' E 001°31'1312.9
2016-Feb-05 15:33N 40°31' E 001°38'1312.8
2016-Feb-05 14:34N 40°42' E 001°46'1312.4
2016-Feb-05 13:30N 40°54' E 001°54'1212.6
2016-Feb-05 12:33N 41°04' E 002°01'1212.5
2016-Feb-05 11:34N 41°15' E 002°09'14 0.5
2016-Feb-04 09:19N 41°06' E 002°23'912.2
2016-Feb-04 08:33N 40°59' E 002°32'1211.9
2016-Feb-04 07:33N 40°53' E 002°46'1211.8
2016-Feb-04 06:33N 40°49' E 003°00'1110.7
2016-Feb-04 05:33N 40°44' E 003°13'9 9.4
2016-Feb-04 04:33N 40°39' E 003°23'10 8.9
2016-Feb-04 03:26N 40°34' E 003°35'26010.0
2016-Feb-03 01:33N 38°34' E 008°34'27111.8
2016-Feb-02 02:33N 36°40' E 013°44'1212.0
2016-Feb-02 01:33N 36°36' E 013°59'1212.3
2016-Feb-02 00:33N 36°33' E 014°13'1212.4
2016-Feb-01 23:33N 36°29' E 014°28'  

Dump ship's entire track history